Time;durP1;ratioP1;P1;durP2;ratioP2;P2;SDS_P1;SDS_P2;PMS_P1;PMS_P2;Temp;Humidity;BMP_temperature;BMP_pressure;BME280_temperature;BME280_humidity;BME280_pressure;Samples;Min_cycle;Max_cycle;Signal;HPM_P1;HPM_P2
2023/09/24 00:02:11;;;;;;;4.30;3.30;;;;;;;;;;4951809;29;20276;-74
2023/09/24 00:04:37;;;;;;;3.13;2.77;;;;;;;;;;4951205;29;20197;-73
2023/09/24 00:07:05;;;;;;;3.83;2.70;;;;;;;;;;4951523;28;20303;-73
2023/09/24 00:09:31;;;;;;;4.93;3.00;;;;;;;;;;4951381;28;20275;-73
2023/09/24 00:11:57;;;;;;;3.37;2.97;;;;;;;;;;4950195;29;20193;-74
2023/09/24 00:14:26;;;;;;;3.43;3.00;;;;;;;;;;4951589;29;20181;-73
2023/09/24 00:16:52;;;;;;;4.20;3.10;;;;;;;;;;4951201;28;20200;-73
2023/09/24 00:19:18;;;;;;;4.00;2.83;;;;;;;;;;4950877;29;20308;-73
2023/09/24 00:21:46;;;;;;;4.70;2.97;;;;;;;;;;4951268;28;20185;-73
2023/09/24 00:24:13;;;;;;;6.70;3.57;;;;;;;;;;4951604;29;20270;-73
2023/09/24 00:26:39;;;;;;;4.87;3.43;;;;;;;;;;4951118;28;20181;-73
2023/09/24 00:29:05;;;;;;;4.87;3.30;;;;;;;;;;4951299;29;20761;-74
2023/09/24 00:31:31;;;;;;;4.70;3.27;;;;;;;;;;4951213;28;20759;-73
2023/09/24 00:33:58;;;;;;;6.27;2.93;;;;;;;;;;4951493;28;20593;-73
2023/09/24 00:36:24;;;;;;;4.40;3.40;;;;;;;;;;4950315;29;20872;-73
2023/09/24 00:38:50;;;;;;;4.70;3.10;;;;;;;;;;4949766;29;20209;-73
2023/09/24 00:41:17;;;;;;;4.67;3.20;;;;;;;;;;4951265;28;20200;-73
2023/09/24 00:43:43;;;;;;;3.40;3.00;;;;;;;;;;4950074;29;20189;-73
2023/09/24 00:46:11;;;;;;;4.60;2.87;;;;;;;;;;4951450;29;20665;-74
2023/09/24 00:48:38;;;;;;;5.27;3.10;;;;;;;;;;4950829;29;20211;-73
2023/09/24 00:51:18;;;;;;;3.20;2.60;;;;;;;;;;4950396;28;20259;-73
2023/09/24 00:53:46;;;;;;;3.57;2.80;;;;;;;;;;4930261;29;20264;-73
2023/09/24 00:56:12;;;;;;;8.17;2.83;;;;;;;;;;4951237;29;20193;-73
2023/09/24 00:58:39;;;;;;;4.73;3.23;;;;;;;;;;4938130;29;20233;-74
2023/09/24 01:01:06;;;;;;;5.23;3.10;;;;;;;;;;4949248;29;20215;-74
2023/09/24 01:03:32;;;;;;;6.93;2.97;;;;;;;;;;4950886;28;20181;-74
2023/09/24 01:05:59;;;;;;;4.53;2.87;;;;;;;;;;4949680;29;20673;-74
2023/09/24 01:08:28;;;;;;;3.63;2.80;;;;;;;;;;4949123;29;20213;-73
2023/09/24 01:10:57;;;;;;;4.93;2.77;;;;;;;;;;4949069;29;20216;-74
2023/09/24 01:13:23;;;;;;;2.50;2.30;;;;;;;;;;4965718;28;20197;-74
2023/09/24 01:15:52;;;;;;;4.20;2.90;;;;;;;;;;4965611;28;20564;-74
2023/09/24 01:18:20;;;;;;;5.07;3.03;;;;;;;;;;4948231;29;21985;-74
2023/09/24 01:20:46;;;;;;;4.43;3.33;;;;;;;;;;4963089;28;20193;-74
2023/09/24 01:23:14;;;;;;;3.97;3.13;;;;;;;;;;4949481;29;20250;-73
2023/09/24 01:25:40;;;;;;;3.37;2.77;;;;;;;;;;4949392;29;20200;-73
2023/09/24 01:28:07;;;;;;;3.73;2.60;;;;;;;;;;4950367;28;20213;-73
2023/09/24 01:30:34;;;;;;;4.57;2.80;;;;;;;;;;4958622;28;20224;-74
2023/09/24 01:33:00;;;;;;;4.40;2.77;;;;;;;;;;4946239;29;20188;-73
2023/09/24 01:35:27;;;;;;;5.53;3.00;;;;;;;;;;4950499;29;20228;-75
2023/09/24 01:37:59;;;;;;;4.93;2.93;;;;;;;;;;4950727;28;20707;-73
2023/09/24 01:40:30;;;;;;;4.23;2.90;;;;;;;;;;4948672;28;20641;-72
2023/09/24 01:43:00;;;;;;;3.20;2.70;;;;;;;;;;4945329;29;20189;-73
2023/09/24 01:45:29;;;;;;;4.07;2.90;;;;;;;;;;4936426;28;20194;-74
2023/09/24 01:47:55;;;;;;;4.17;3.27;;;;;;;;;;4941853;29;20214;-73
2023/09/24 01:50:27;;;;;;;4.10;2.70;;;;;;;;;;4932192;29;20225;-72
2023/09/24 01:52:57;;;;;;;4.23;2.77;;;;;;;;;;4950918;28;20217;-73
2023/09/24 01:55:24;;;;;;;5.00;2.90;;;;;;;;;;4950428;28;20200;-72
2023/09/24 01:57:51;;;;;;;3.30;2.70;;;;;;;;;;4950105;29;20736;-72
2023/09/24 02:00:20;;;;;;;4.43;3.30;;;;;;;;;;4948519;29;20197;-73
2023/09/24 02:02:46;;;;;;;4.17;2.80;;;;;;;;;;4952322;28;20211;-73
2023/09/24 02:05:13;;;;;;;4.00;2.93;;;;;;;;;;4953956;28;20220;-72
2023/09/24 02:07:40;;;;;;;4.37;2.80;;;;;;;;;;4952872;29;20603;-73
2023/09/24 02:10:07;;;;;;;4.60;2.80;;;;;;;;;;4952217;29;20755;-73
2023/09/24 02:12:36;;;;;;;4.47;2.97;;;;;;;;;;4954128;28;20189;-73
2023/09/24 02:15:11;;;;;;;3.37;2.50;;;;;;;;;;4950332;29;20184;-73
2023/09/24 02:17:41;;;;;;;3.50;2.50;;;;;;;;;;4950660;29;20244;-72
2023/09/24 02:22:57;;;;;;;4.80;2.40;;;;;;;;;;4949595;29;20196;-72
2023/09/24 02:25:24;;;;;;;4.33;2.80;;;;;;;;;;4953742;29;20277;-72
2023/09/24 02:27:51;;;;;;;4.10;2.63;;;;;;;;;;4952034;29;20232;-73
2023/09/24 02:30:18;;;;;;;3.43;2.60;;;;;;;;;;4951699;29;20213;-73
2023/09/24 02:32:45;;;;;;;3.83;2.70;;;;;;;;;;4953701;28;20617;-73
2023/09/24 02:35:12;;;;;;;4.87;3.07;;;;;;;;;;4953787;29;20275;-73
2023/09/24 02:37:44;;;;;;;5.27;2.73;;;;;;;;;;4953203;28;20184;-73
2023/09/24 02:40:26;;;;;;;4.17;2.50;;;;;;;;;;4935503;29;20193;-72
2023/09/24 02:42:53;;;;;;;4.30;2.87;;;;;;;;;;4963670;28;20256;-73
2023/09/24 02:45:20;;;;;;;3.60;2.50;;;;;;;;;;4952968;28;20185;-72
2023/09/24 02:47:49;;;;;;;3.40;2.57;;;;;;;;;;4953178;29;20181;-73
2023/09/24 02:50:16;;;;;;;5.77;2.50;;;;;;;;;;4951311;29;20217;-72
2023/09/24 02:52:43;;;;;;;3.30;2.40;;;;;;;;;;4953219;28;20228;-73
2023/09/24 02:55:14;;;;;;;4.70;2.30;;;;;;;;;;4953372;29;20268;-73
2023/09/24 02:57:41;;;;;;;5.00;2.77;;;;;;;;;;4953087;28;20197;-73
2023/09/24 03:00:12;;;;;;;4.30;2.60;;;;;;;;;;4935222;29;20584;-73
2023/09/24 03:02:39;;;;;;;3.80;2.27;;;;;;;;;;4951836;29;20225;-72
2023/09/24 03:05:08;;;;;;;3.00;2.53;;;;;;;;;;4931127;29;20197;-74
2023/09/24 03:07:34;;;;;;;3.97;2.30;;;;;;;;;;4951340;29;20197;-73
2023/09/24 03:10:00;;;;;;;4.50;2.43;;;;;;;;;;4919242;29;20260;-73
2023/09/24 03:12:26;;;;;;;6.50;2.50;;;;;;;;;;4952754;29;20262;-73
2023/09/24 03:14:52;;;;;;;5.13;2.60;;;;;;;;;;4947543;29;20530;-73
2023/09/24 03:17:19;;;;;;;3.30;2.90;;;;;;;;;;4950153;29;20217;-72
2023/09/24 03:19:45;;;;;;;3.90;2.80;;;;;;;;;;4950729;29;20727;-73
2023/09/24 03:22:11;;;;;;;5.40;2.90;;;;;;;;;;4935301;29;20285;-72
2023/09/24 03:24:38;;;;;;;5.37;2.90;;;;;;;;;;4938241;29;20223;-73
2023/09/24 03:27:04;;;;;;;5.47;2.93;;;;;;;;;;4952493;28;20199;-74
2023/09/24 03:29:31;;;;;;;3.27;2.90;;;;;;;;;;4948153;29;20218;-72
2023/09/24 03:31:58;;;;;;;3.07;2.17;;;;;;;;;;4952464;28;20208;-73
2023/09/24 03:34:24;;;;;;;4.10;2.70;;;;;;;;;;4935149;29;20260;-72
2023/09/24 03:36:51;;;;;;;4.40;2.40;;;;;;;;;;4941417;29;20697;-73
2023/09/24 03:39:17;;;;;;;2.80;2.50;;;;;;;;;;4950422;29;20197;-73
2023/09/24 03:41:43;;;;;;;3.60;2.30;;;;;;;;;;4945620;29;20268;-72
2023/09/24 03:44:11;;;;;;;5.13;2.73;;;;;;;;;;4934932;29;20189;-73
2023/09/24 03:46:37;;;;;;;4.00;2.60;;;;;;;;;;4952334;28;20200;-72
2023/09/24 03:49:03;;;;;;;4.07;2.57;;;;;;;;;;4934553;29;20229;-72
2023/09/24 03:51:29;;;;;;;4.50;2.83;;;;;;;;;;4951978;29;20627;-72
2023/09/24 03:53:56;;;;;;;4.30;2.70;;;;;;;;;;4952210;28;20224;-72
2023/09/24 03:56:22;;;;;;;3.93;2.50;;;;;;;;;;4950419;29;20213;-72
2023/09/24 03:58:48;;;;;;;3.03;2.70;;;;;;;;;;4950560;29;20272;-73
2023/09/24 04:01:14;;;;;;;5.27;2.60;;;;;;;;;;4950341;29;20929;-73
2023/09/24 04:03:40;;;;;;;4.17;2.80;;;;;;;;;;4952226;28;20894;-73
2023/09/24 04:06:07;;;;;;;5.57;2.60;;;;;;;;;;4951629;29;20193;-73
2023/09/24 04:08:33;;;;;;;3.67;2.50;;;;;;;;;;4951546;28;20220;-73
2023/09/24 04:11:00;;;;;;;4.00;2.63;;;;;;;;;;4951893;29;20232;-73
2023/09/24 04:13:26;;;;;;;4.20;3.00;;;;;;;;;;4950493;29;20204;-72
2023/09/24 04:15:53;;;;;;;3.77;2.60;;;;;;;;;;4951675;29;20224;-73
2023/09/24 04:18:19;;;;;;;3.83;2.57;;;;;;;;;;4953518;28;20840;-73
2023/09/24 04:20:45;;;;;;;4.27;2.50;;;;;;;;;;4951310;28;20696;-73
2023/09/24 04:23:11;;;;;;;2.80;2.50;;;;;;;;;;4951512;28;20212;-72
2023/09/24 04:25:39;;;;;;;3.37;2.60;;;;;;;;;;4950809;28;20295;-73
2023/09/24 04:28:05;;;;;;;3.00;2.70;;;;;;;;;;4942120;28;20703;-72
2023/09/24 04:30:32;;;;;;;3.00;2.50;;;;;;;;;;4966086;28;20943;-72
2023/09/24 04:32:58;;;;;;;2.53;2.10;;;;;;;;;;4967021;28;20197;-73
2023/09/24 04:35:27;;;;;;;2.90;2.10;;;;;;;;;;4949936;29;20189;-73
2023/09/24 04:37:53;;;;;;;3.20;2.10;;;;;;;;;;4950033;29;20243;-74
2023/09/24 04:40:19;;;;;;;2.87;2.40;;;;;;;;;;4948459;29;20237;-74
2023/09/24 04:42:46;;;;;;;4.33;2.63;;;;;;;;;;4950826;29;20314;-73
2023/09/24 04:45:14;;;;;;;5.03;2.80;;;;;;;;;;4951220;28;20676;-74
2023/09/24 04:47:40;;;;;;;2.40;2.20;;;;;;;;;;4951172;28;20189;-73
2023/09/24 04:50:07;;;;;;;3.10;2.10;;;;;;;;;;4950471;29;20700;-72
2023/09/24 04:52:34;;;;;;;2.20;2.00;;;;;;;;;;4951090;29;20729;-74
2023/09/24 04:55:00;;;;;;;2.20;1.97;;;;;;;;;;4950931;29;20618;-73
2023/09/24 04:57:27;;;;;;;3.87;2.20;;;;;;;;;;4946535;29;20217;-72
2023/09/24 04:59:53;;;;;;;3.20;2.33;;;;;;;;;;4950290;29;20287;-72
2023/09/24 05:02:21;;;;;;;3.70;2.40;;;;;;;;;;4951193;28;20193;-74
2023/09/24 05:04:50;;;;;;;4.17;2.67;;;;;;;;;;4932959;29;20204;-72
2023/09/24 05:07:17;;;;;;;3.40;2.60;;;;;;;;;;4949482;29;20573;-73
2023/09/24 05:09:43;;;;;;;3.67;2.60;;;;;;;;;;4947407;29;20767;-73
2023/09/24 05:12:10;;;;;;;3.97;2.97;;;;;;;;;;4950876;28;20181;-74
2023/09/24 05:14:36;;;;;;;3.63;2.97;;;;;;;;;;4947368;29;20182;-73
2023/09/24 05:17:02;;;;;;;5.37;2.67;;;;;;;;;;4949661;29;20223;-73
2023/09/24 05:19:28;;;;;;;4.27;3.00;;;;;;;;;;4950260;29;20201;-75
2023/09/24 05:21:55;;;;;;;3.90;3.17;;;;;;;;;;4966010;28;20201;-73
2023/09/24 05:24:21;;;;;;;3.87;2.87;;;;;;;;;;4950872;28;20280;-73
2023/09/24 05:26:47;;;;;;;2.80;2.50;;;;;;;;;;4950820;28;20189;-72
2023/09/24 05:29:13;;;;;;;4.57;3.00;;;;;;;;;;4950030;28;20228;-73
2023/09/24 05:31:39;;;;;;;2.70;2.50;;;;;;;;;;4950581;28;20205;-73
2023/09/24 05:34:06;;;;;;;3.57;2.53;;;;;;;;;;4949278;29;20928;-72
2023/09/24 05:36:32;;;;;;;3.47;2.30;;;;;;;;;;4965622;28;20192;-73
2023/09/24 05:38:58;;;;;;;4.10;2.30;;;;;;;;;;4954037;29;20688;-73
2023/09/24 05:41:25;;;;;;;3.40;2.20;;;;;;;;;;4969279;28;20212;-73
2023/09/24 05:43:54;;;;;;;3.07;2.40;;;;;;;;;;4952864;29;20201;-72
2023/09/24 05:46:20;;;;;;;2.97;2.40;;;;;;;;;;4970074;28;20192;-74
2023/09/24 05:48:46;;;;;;;3.30;2.50;;;;;;;;;;4951802;29;20216;-74
2023/09/24 05:51:12;;;;;;;4.07;2.67;;;;;;;;;;4954147;28;20224;-73
2023/09/24 05:53:38;;;;;;;4.13;2.83;;;;;;;;;;4954365;29;20203;-73
2023/09/24 05:56:04;;;;;;;3.80;2.73;;;;;;;;;;4952961;29;20190;-73
2023/09/24 05:58:31;;;;;;;4.67;3.00;;;;;;;;;;4956168;28;20228;-73
2023/09/24 06:00:58;;;;;;;4.57;3.33;;;;;;;;;;4954405;28;20181;-73
2023/09/24 06:03:24;;;;;;;3.53;2.90;;;;;;;;;;4953020;29;20185;-73
2023/09/24 06:05:50;;;;;;;3.20;2.60;;;;;;;;;;4953964;28;20719;-74
2023/09/24 06:08:16;;;;;;;3.97;3.00;;;;;;;;;;4953211;28;20631;-74
2023/09/24 06:10:43;;;;;;;3.57;2.90;;;;;;;;;;4936581;29;20209;-73
2023/09/24 06:13:11;;;;;;;3.20;2.67;;;;;;;;;;4951905;29;20242;-73
2023/09/24 06:15:37;;;;;;;2.70;2.50;;;;;;;;;;4950504;29;20661;-73
2023/09/24 06:18:04;;;;;;;5.23;2.87;;;;;;;;;;4948496;29;20224;-73
2023/09/24 06:20:30;;;;;;;2.93;2.33;;;;;;;;;;4953869;28;20281;-73
2023/09/24 06:22:57;;;;;;;3.10;2.70;;;;;;;;;;4955613;28;20611;-73
2023/09/24 06:25:24;;;;;;;3.10;2.67;;;;;;;;;;4949949;29;20199;-73
2023/09/24 06:27:50;;;;;;;3.27;2.70;;;;;;;;;;4950306;29;20192;-73
2023/09/24 06:30:16;;;;;;;2.60;2.40;;;;;;;;;;4949894;28;20216;-73
2023/09/24 06:32:42;;;;;;;4.03;2.60;;;;;;;;;;4951068;29;20713;-73
2023/09/24 06:35:09;;;;;;;2.73;2.43;;;;;;;;;;4968776;28;20238;-73
2023/09/24 06:37:35;;;;;;;3.30;2.70;;;;;;;;;;4952302;29;20182;-73
2023/09/24 06:40:01;;;;;;;3.20;2.90;;;;;;;;;;4951639;29;20204;-73
2023/09/24 06:42:27;;;;;;;3.70;2.90;;;;;;;;;;4952276;29;20189;-72
2023/09/24 06:44:54;;;;;;;3.90;2.63;;;;;;;;;;4952189;29;20830;-73
2023/09/24 06:47:20;;;;;;;6.10;2.90;;;;;;;;;;4953383;29;20859;-73
2023/09/24 06:49:50;;;;;;;3.60;2.70;;;;;;;;;;4951361;28;20216;-73
2023/09/24 06:52:16;;;;;;;4.37;3.07;;;;;;;;;;4950250;29;20186;-72
2023/09/24 06:54:42;;;;;;;3.37;2.83;;;;;;;;;;4952059;28;20661;-73
2023/09/24 06:57:08;;;;;;;5.10;2.80;;;;;;;;;;4952993;29;20185;-72
2023/09/24 06:59:34;;;;;;;2.73;2.50;;;;;;;;;;4951682;29;20260;-75
2023/09/24 07:02:01;;;;;;;4.97;3.27;;;;;;;;;;4968613;28;20552;-76
2023/09/24 07:04:27;;;;;;;3.83;2.90;;;;;;;;;;4952760;28;20220;-73
2023/09/24 07:06:53;;;;;;;4.70;2.97;;;;;;;;;;4968169;28;20220;-74
2023/09/24 07:09:19;;;;;;;3.53;2.80;;;;;;;;;;4951792;29;20267;-76
2023/09/24 07:11:46;;;;;;;3.37;2.83;;;;;;;;;;4949347;29;20291;-74
2023/09/24 07:14:12;;;;;;;4.17;3.53;;;;;;;;;;4952890;29;20213;-74
2023/09/24 07:16:38;;;;;;;5.57;3.00;;;;;;;;;;4952847;28;20692;-74
2023/09/24 07:19:04;;;;;;;5.90;3.30;;;;;;;;;;4952746;29;20209;-77
2023/09/24 07:21:31;;;;;;;3.53;3.10;;;;;;;;;;4952325;28;20654;-75
2023/09/24 07:23:58;;;;;;;3.57;2.93;;;;;;;;;;4952999;28;20743;-74
2023/09/24 07:26:25;;;;;;;4.37;2.90;;;;;;;;;;4952582;28;20227;-75
2023/09/24 07:28:52;;;;;;;4.63;3.03;;;;;;;;;;4952572;28;20776;-76
2023/09/24 07:31:22;;;;;;;4.23;3.03;;;;;;;;;;4953743;28;20221;-74
2023/09/24 07:33:49;;;;;;;4.23;2.97;;;;;;;;;;4953841;28;20189;-74
2023/09/24 07:36:15;;;;;;;3.37;3.07;;;;;;;;;;4953709;29;20193;-74
2023/09/24 07:38:41;;;;;;;3.87;3.00;;;;;;;;;;4953339;28;20205;-74
2023/09/24 07:41:08;;;;;;;4.40;3.33;;;;;;;;;;4968638;28;20197;-75
2023/09/24 07:43:44;;;;;;;4.67;3.40;;;;;;;;;;4949027;28;20297;-74
2023/09/24 07:46:12;;;;;;;4.43;3.30;;;;;;;;;;4949744;29;20668;-75
2023/09/24 07:48:48;;;;;;;5.80;3.20;;;;;;;;;;4949589;29;20265;-75
2023/09/24 07:51:18;;;;;;;5.37;3.50;;;;;;;;;;4952205;28;20217;-74
2023/09/24 07:53:45;;;;;;;3.63;3.03;;;;;;;;;;4953280;28;20189;-74
2023/09/24 07:56:11;;;;;;;4.47;3.13;;;;;;;;;;4953275;28;20272;-74
2023/09/24 07:58:38;;;;;;;4.27;3.10;;;;;;;;;;4952847;28;20682;-74
2023/09/24 08:01:06;;;;;;;4.30;3.40;;;;;;;;;;4952957;28;20208;-75
2023/09/24 08:03:32;;;;;;;5.23;3.70;;;;;;;;;;4953188;28;20208;-74
2023/09/24 08:05:59;;;;;;;4.77;3.30;;;;;;;;;;4953158;29;20268;-75
2023/09/24 08:08:26;;;;;;;4.87;3.67;;;;;;;;;;4952629;29;20640;-74
2023/09/24 08:10:52;;;;;;;6.10;3.80;;;;;;;;;;4952624;29;20212;-74
2023/09/24 08:13:19;;;;;;;5.03;3.60;;;;;;;;;;4952907;29;20832;-73
2023/09/24 08:15:45;;;;;;;4.77;3.90;;;;;;;;;;4952890;28;20236;-74
2023/09/24 08:18:12;;;;;;;5.07;3.63;;;;;;;;;;4952401;29;20220;-74
2023/09/24 08:20:40;;;;;;;4.57;3.60;;;;;;;;;;4949416;28;20269;-73
2023/09/24 08:23:06;;;;;;;5.97;3.60;;;;;;;;;;4951916;29;20657;-74
2023/09/24 08:25:32;;;;;;;5.63;3.67;;;;;;;;;;4951085;28;20266;-74
2023/09/24 08:27:59;;;;;;;3.93;3.30;;;;;;;;;;4952108;29;20720;-74
2023/09/24 08:30:27;;;;;;;5.43;3.60;;;;;;;;;;4951002;28;20870;-74
2023/09/24 08:32:53;;;;;;;4.23;3.30;;;;;;;;;;4951915;29;20525;-75
2023/09/24 08:35:19;;;;;;;4.97;3.53;;;;;;;;;;4951770;28;20182;-75
2023/09/24 08:37:45;;;;;;;5.43;3.67;;;;;;;;;;4949920;29;20192;-74
2023/09/24 08:40:12;;;;;;;4.80;3.30;;;;;;;;;;4951297;28;20681;-74
2023/09/24 08:42:38;;;;;;;4.60;2.87;;;;;;;;;;4965863;28;20358;-74
2023/09/24 08:45:12;;;;;;;6.47;3.63;;;;;;;;;;4962592;28;20189;-75
2023/09/24 08:47:39;;;;;;;6.90;3.73;;;;;;;;;;4949804;28;20196;-74
2023/09/24 08:50:06;;;;;;;5.70;3.80;;;;;;;;;;4951182;28;20343;-74
2023/09/24 08:52:34;;;;;;;6.33;3.60;;;;;;;;;;4950603;28;20199;-74
2023/09/24 08:55:01;;;;;;;5.63;4.10;;;;;;;;;;4948894;29;20687;-74
2023/09/24 08:57:27;;;;;;;6.53;4.07;;;;;;;;;;4952353;28;20188;-74
2023/09/24 08:59:53;;;;;;;4.27;3.50;;;;;;;;;;4951518;29;20193;-74
2023/09/24 09:02:19;;;;;;;4.73;3.47;;;;;;;;;;4952287;29;20251;-73
2023/09/24 09:04:49;;;;;;;5.63;4.00;;;;;;;;;;4952205;28;20213;-74
2023/09/24 09:07:15;;;;;;;7.23;4.10;;;;;;;;;;4948373;29;20233;-74
2023/09/24 09:09:41;;;;;;;5.33;3.73;;;;;;;;;;4951488;28;20283;-74
2023/09/24 09:12:17;;;;;;;5.00;3.50;;;;;;;;;;4951793;29;20751;-74
2023/09/24 09:14:43;;;;;;;5.40;3.63;;;;;;;;;;4952481;28;20581;-74
2023/09/24 09:17:10;;;;;;;4.63;3.40;;;;;;;;;;4951678;29;20248;-74
2023/09/24 09:19:59;;;;;;;4.53;3.63;;;;;;;;;;4951403;29;20228;-75
2023/09/24 09:22:29;;;;;;;6.87;3.80;;;;;;;;;;4952090;28;20264;-75
2023/09/24 09:25:01;;;;;;;4.80;3.60;;;;;;;;;;4952023;28;20300;-74
2023/09/24 09:27:31;;;;;;;5.47;3.40;;;;;;;;;;4952063;29;20220;-73
2023/09/24 09:30:12;;;;;;;4.50;3.43;;;;;;;;;;4962171;28;20272;-74
2023/09/24 09:32:38;;;;;;;5.97;4.10;;;;;;;;;;4951592;29;20181;-75
2023/09/24 09:35:05;;;;;;;4.77;3.67;;;;;;;;;;4952050;29;20559;-75
2023/09/24 09:37:31;;;;;;;6.30;4.33;;;;;;;;;;4951938;29;20193;-76
2023/09/24 09:39:58;;;;;;;6.57;3.77;;;;;;;;;;4951376;29;20272;-74
2023/09/24 09:42:25;;;;;;;4.13;3.57;;;;;;;;;;4951940;28;20189;-75
2023/09/24 09:44:52;;;;;;;4.37;3.60;;;;;;;;;;4951814;29;20292;-74
2023/09/24 09:47:21;;;;;;;4.87;3.70;;;;;;;;;;4952020;29;20204;-75
2023/09/24 09:49:49;;;;;;;4.33;3.53;;;;;;;;;;4951059;28;20217;-73
2023/09/24 09:52:20;;;;;;;4.47;3.40;;;;;;;;;;4948329;28;20182;-74
2023/09/24 09:54:48;;;;;;;4.40;3.10;;;;;;;;;;4949870;29;20732;-74
2023/09/24 09:57:14;;;;;;;5.63;3.20;;;;;;;;;;4951140;29;20177;-75
2023/09/24 09:59:41;;;;;;;4.17;3.17;;;;;;;;;;4949184;29;20208;-75
2023/09/24 10:02:08;;;;;;;5.97;3.00;;;;;;;;;;4951519;28;20216;-75
2023/09/24 10:04:34;;;;;;;3.60;2.70;;;;;;;;;;4950943;28;20217;-74
2023/09/24 10:07:00;;;;;;;4.13;2.53;;;;;;;;;;4951285;29;20691;-74
2023/09/24 10:09:26;;;;;;;3.33;2.73;;;;;;;;;;4948967;29;20205;-75
2023/09/24 10:11:55;;;;;;;4.27;2.70;;;;;;;;;;4949726;28;20224;-74
2023/09/24 10:14:35;;;;;;;4.80;2.80;;;;;;;;;;4947681;28;20188;-75
2023/09/24 10:17:16;;;;;;;4.00;2.50;;;;;;;;;;4949961;28;20276;-74
2023/09/24 10:19:50;;;;;;;3.33;2.53;;;;;;;;;;4948200;29;20203;-75
2023/09/24 10:22:25;;;;;;;4.30;2.60;;;;;;;;;;4949496;29;20209;-74
2023/09/24 10:24:52;;;;;;;3.87;2.60;;;;;;;;;;4953854;28;20219;-74
2023/09/24 10:27:21;;;;;;;4.40;2.30;;;;;;;;;;4951983;29;20190;-74
2023/09/24 10:29:51;;;;;;;4.37;2.70;;;;;;;;;;4952989;29;20197;-74
2023/09/24 10:32:18;;;;;;;3.30;2.10;;;;;;;;;;4952591;29;20761;-74
2023/09/24 10:34:57;;;;;;;5.30;2.20;;;;;;;;;;4950896;29;20540;-74
2023/09/24 10:37:29;;;;;;;5.30;2.60;;;;;;;;;;4954021;28;20272;-73
2023/09/24 10:39:59;;;;;;;2.20;2.00;;;;;;;;;;4953827;29;20236;-74
2023/09/24 10:42:26;;;;;;;4.53;2.50;;;;;;;;;;4954249;28;20260;-74
2023/09/24 10:45:07;;;;;;;2.90;2.10;;;;;;;;;;4954662;29;20219;-74
2023/09/24 10:47:38;;;;;;;2.27;1.90;;;;;;;;;;4952624;29;20669;-74
2023/09/24 10:50:13;;;;;;;4.57;2.27;;;;;;;;;;4953697;29;20209;-73
2023/09/24 10:52:45;;;;;;;3.70;2.13;;;;;;;;;;4954119;29;20189;-73
2023/09/24 10:55:11;;;;;;;2.63;2.07;;;;;;;;;;4946814;29;20190;-74
2023/09/24 10:57:38;;;;;;;3.83;2.17;;;;;;;;;;4953907;29;20181;-74
2023/09/24 11:00:04;;;;;;;2.47;1.90;;;;;;;;;;4953871;29;20270;-74
2023/09/24 11:02:30;;;;;;;3.07;2.03;;;;;;;;;;4953848;29;20194;-74
2023/09/24 11:05:03;;;;;;;4.47;2.20;;;;;;;;;;4953905;29;20199;-73
2023/09/24 11:07:31;;;;;;;2.73;1.90;;;;;;;;;;4947989;29;20270;-76
2023/09/24 11:09:57;;;;;;;3.37;1.90;;;;;;;;;;4953414;28;20280;-74
2023/09/24 11:12:23;;;;;;;2.77;1.77;;;;;;;;;;4953100;28;20212;-72
2023/09/24 11:14:56;;;;;;;3.67;1.80;;;;;;;;;;4953602;28;20193;-76
2023/09/24 11:17:23;;;;;;;3.83;2.13;;;;;;;;;;4953837;29;20773;-72
2023/09/24 11:19:49;;;;;;;3.27;2.00;;;;;;;;;;4953503;29;20213;-74
2023/09/24 11:22:19;;;;;;;2.53;1.90;;;;;;;;;;4954075;28;20228;-77
2023/09/24 11:24:47;;;;;;;2.57;1.70;;;;;;;;;;4950753;29;20181;-77
2023/09/24 11:27:13;;;;;;;3.00;1.90;;;;;;;;;;4950958;29;20190;-76
2023/09/24 11:29:40;;;;;;;2.57;2.10;;;;;;;;;;4953164;28;20704;-79
2023/09/24 11:32:06;;;;;;;3.00;1.70;;;;;;;;;;4953941;28;20217;-78
2023/09/24 11:34:32;;;;;;;4.07;2.00;;;;;;;;;;4954729;28;20189;-80
2023/09/24 11:36:59;;;;;;;2.87;1.80;;;;;;;;;;4950043;29;20188;-80
2023/09/24 11:39:25;;;;;;;2.73;1.73;;;;;;;;;;4955141;28;20292;-80
2023/09/24 11:41:51;;;;;;;2.63;1.60;;;;;;;;;;4954979;29;20752;-82
2023/09/24 11:44:20;;;;;;;2.10;1.80;;;;;;;;;;4958209;28;20190;-82
2023/09/24 11:46:46;;;;;;;3.10;1.67;;;;;;;;;;4955562;28;20213;-82
2023/09/24 11:49:13;;;;;;;2.33;1.70;;;;;;;;;;4957120;28;20213;-82
2023/09/24 11:51:39;;;;;;;2.17;1.80;;;;;;;;;;4963114;28;20212;-82
2023/09/24 11:54:05;;;;;;;2.90;1.80;;;;;;;;;;4963900;29;20231;-82
2023/09/24 11:56:31;;;;;;;3.57;1.80;;;;;;;;;;4946203;29;20183;-82
2023/09/24 11:58:59;;;;;;;2.93;1.60;;;;;;;;;;4958670;29;20209;-81
2023/09/24 12:01:26;;;;;;;4.13;1.80;;;;;;;;;;4959757;28;20196;-82
2023/09/24 12:03:53;;;;;;;3.47;1.60;;;;;;;;;;4958398;29;20201;-82
2023/09/24 12:06:19;;;;;;;1.97;1.70;;;;;;;;;;4974944;28;20189;-82
2023/09/24 12:08:46;;;;;;;3.40;1.90;;;;;;;;;;4960503;29;20276;-83
2023/09/24 12:11:12;;;;;;;3.13;1.70;;;;;;;;;;4960644;29;20234;-82
2023/09/24 12:13:38;;;;;;;1.67;1.50;;;;;;;;;;4959575;28;20272;-83
2023/09/24 12:16:05;;;;;;;1.70;1.40;;;;;;;;;;4957369;29;20675;-83
2023/09/24 12:18:31;;;;;;;3.20;1.63;;;;;;;;;;4957916;29;20259;-83
2023/09/24 12:20:57;;;;;;;2.60;1.70;;;;;;;;;;4955552;28;20193;-83
2023/09/24 12:23:25;;;;;;;2.43;1.70;;;;;;;;;;4950517;29;20186;-82
2023/09/24 12:25:51;;;;;;;3.67;1.60;;;;;;;;;;4954200;29;20824;-83
2023/09/24 12:28:19;;;;;;;2.57;1.67;;;;;;;;;;4955087;29;20299;-83
2023/09/24 12:30:46;;;;;;;1.70;1.60;;;;;;;;;;4954860;29;20684;-83
2023/09/24 12:33:13;;;;;;;2.90;1.80;;;;;;;;;;4955244;28;20193;-82
2023/09/24 12:35:42;;;;;;;2.30;1.40;;;;;;;;;;4954609;28;20188;-83
2023/09/24 12:38:09;;;;;;;2.57;1.57;;;;;;;;;;4937844;29;20205;-83
2023/09/24 12:40:35;;;;;;;2.47;1.40;;;;;;;;;;4969728;28;20223;-83
2023/09/24 12:43:01;;;;;;;1.87;1.40;;;;;;;;;;4954446;28;20211;-83
2023/09/24 12:45:27;;;;;;;2.50;1.30;;;;;;;;;;4954627;29;20718;-83
2023/09/24 12:47:54;;;;;;;2.47;1.43;;;;;;;;;;4955033;28;20244;-83
2023/09/24 12:50:20;;;;;;;1.70;1.50;;;;;;;;;;4954002;29;20942;-83
2023/09/24 12:52:46;;;;;;;1.90;1.50;;;;;;;;;;4937972;29;20251;-84
2023/09/24 12:55:16;;;;;;;2.97;1.80;;;;;;;;;;4954982;29;20207;-83
2023/09/24 12:57:42;;;;;;;3.27;1.90;;;;;;;;;;4957029;28;20205;-83
2023/09/24 13:00:11;;;;;;;1.83;1.47;;;;;;;;;;4922330;29;20225;-83
2023/09/24 13:02:42;;;;;;;2.33;1.50;;;;;;;;;;4953670;29;20236;-83
2023/09/24 13:05:11;;;;;;;2.80;1.63;;;;;;;;;;4955671;28;20239;-83
2023/09/24 13:07:43;;;;;;;1.50;1.20;;;;;;;;;;4970196;28;20564;-83
2023/09/24 13:10:09;;;;;;;2.20;1.40;;;;;;;;;;4969412;28;20726;-84
2023/09/24 13:12:36;;;;;;;1.97;1.30;;;;;;;;;;4954484;29;20185;-83
2023/09/24 13:15:02;;;;;;;2.87;1.60;;;;;;;;;;4946893;29;20231;-83
2023/09/24 13:17:28;;;;;;;1.27;1.17;;;;;;;;;;4950851;29;20205;-83
2023/09/24 13:19:55;;;;;;;3.13;1.30;;;;;;;;;;4954215;28;20201;-83
2023/09/24 13:22:21;;;;;;;2.83;1.60;;;;;;;;;;4970504;28;20199;-83
2023/09/24 13:24:47;;;;;;;4.23;1.63;;;;;;;;;;4943362;29;20608;-83
2023/09/24 13:27:14;;;;;;;3.67;1.40;;;;;;;;;;4952713;29;20193;-83
2023/09/24 13:29:40;;;;;;;5.43;3.50;;;;;;;;;;4954214;28;20581;-83
2023/09/24 13:32:06;;;;;;;2.43;1.90;;;;;;;;;;4969392;28;20221;-83
2023/09/24 13:34:32;;;;;;;1.63;1.20;;;;;;;;;;4955766;28;20189;-83
2023/09/24 13:36:59;;;;;;;1.70;1.20;;;;;;;;;;4938115;29;20188;-83
2023/09/24 13:39:25;;;;;;;1.60;1.20;;;;;;;;;;4955244;29;20687;-82
2023/09/24 13:41:51;;;;;;;1.30;1.20;;;;;;;;;;4955011;29;20195;-82
2023/09/24 13:44:17;;;;;;;2.97;2.20;;;;;;;;;;4955912;28;20818;-83
2023/09/24 13:46:43;;;;;;;3.97;3.50;;;;;;;;;;4950290;29;20202;-83
2023/09/24 13:49:10;;;;;;;4.90;3.77;;;;;;;;;;4958876;29;20246;-82
2023/09/24 13:51:41;;;;;;;3.63;3.27;;;;;;;;;;4959866;29;20215;-83
2023/09/24 13:54:08;;;;;;;1.50;1.40;;;;;;;;;;4943554;29;20189;-83
2023/09/24 13:56:35;;;;;;;2.33;1.40;;;;;;;;;;4926715;29;20608;-82
2023/09/24 13:59:01;;;;;;;1.67;1.20;;;;;;;;;;4961259;28;20292;-82
2023/09/24 14:01:27;;;;;;;1.73;1.30;;;;;;;;;;4961191;29;20570;-82
2023/09/24 14:03:53;;;;;;;1.30;1.20;;;;;;;;;;4961105;29;20195;-83
2023/09/24 14:06:20;;;;;;;1.53;1.10;;;;;;;;;;4960166;28;20277;-77
2023/09/24 14:14:17;;;;;;;2.27;1.40;;;;;;;;;;4955339;29;20721;-80
2023/09/24 14:16:44;;;;;;;1.30;1.20;;;;;;;;;;4956891;29;20724;-80
2023/09/24 14:19:10;;;;;;;4.60;1.33;;;;;;;;;;4956827;29;20245;-80
2023/09/24 14:21:37;;;;;;;2.10;1.40;;;;;;;;;;4957672;29;20187;-80
2023/09/24 14:24:04;;;;;;;1.37;1.27;;;;;;;;;;4956966;29;20198;-80
2023/09/24 14:26:30;;;;;;;1.83;1.60;;;;;;;;;;4958164;28;20192;-80
2023/09/24 14:29:00;;;;;;;1.67;1.57;;;;;;;;;;4956896;28;20685;-80
2023/09/24 14:31:26;;;;;;;1.37;1.27;;;;;;;;;;4956762;29;20417;-80
2023/09/24 14:33:53;;;;;;;1.20;1.10;;;;;;;;;;4956443;29;20198;-75
2023/09/24 14:36:20;;;;;;;2.90;2.70;;;;;;;;;;4954387;28;20220;-77
2023/09/24 14:38:46;;;;;;;2.60;2.40;;;;;;;;;;4954690;28;20208;-80
2023/09/24 14:41:12;;;;;;;6.47;5.90;;;;;;;;;;4952970;29;20747;-75
2023/09/24 14:43:39;;;;;;;5.03;4.63;;;;;;;;;;4954311;28;20186;-75
2023/09/24 14:46:06;;;;;;;2.37;2.17;;;;;;;;;;4950876;28;20232;-77
2023/09/24 14:48:32;;;;;;;1.47;1.33;;;;;;;;;;4952423;29;20217;-77
2023/09/24 14:50:58;;;;;;;2.40;1.53;;;;;;;;;;4954054;29;20238;-77
2023/09/24 14:53:25;;;;;;;1.60;1.20;;;;;;;;;;4954686;29;20551;-77